createdAt,value
2019-01-23T00:00:13.206Z,29.42
2019-01-23T00:01:25.254Z,29.50
2019-01-23T00:02:30.442Z,30.48
2019-01-23T00:03:35.528Z,27.73
2019-01-23T00:04:40.717Z,25.50
2019-01-23T00:05:46.364Z,29.52
2019-01-23T00:06:51.435Z,28.92
2019-01-23T00:07:56.910Z,29.63
2019-01-23T00:09:02.756Z,26.15
2019-01-23T00:10:08.487Z,28.87
2019-01-23T00:11:13.248Z,29.18
2019-01-23T00:12:18.067Z,27.85
2019-01-23T00:13:23.172Z,30.02
2019-01-23T00:14:27.975Z,27.22
2019-01-23T00:15:33.642Z,26.90
2019-01-23T00:16:39.485Z,27.62
2019-01-23T00:17:44.242Z,28.87
2019-01-23T00:18:49.880Z,27.85
2019-01-23T00:19:54.643Z,30.25
2019-01-23T00:20:59.737Z,27.77
2019-01-23T00:22:04.575Z,27.77
2019-01-23T00:23:09.667Z,28.83
2019-01-23T00:24:15.079Z,27.10
2019-01-23T00:25:20.282Z,27.75
2019-01-23T00:26:25.329Z,29.10
2019-01-23T00:27:30.541Z,29.10
2019-01-23T00:28:35.687Z,27.62
2019-01-23T00:29:40.808Z,29.77
2019-01-23T00:30:45.914Z,28.67
2019-01-23T00:31:50.871Z,28.60
2019-01-23T00:32:55.644Z,28.98
2019-01-23T00:34:00.427Z,29.32
2019-01-23T00:35:05.478Z,27.02
2019-01-23T00:36:09.954Z,29.15
2019-01-23T00:37:15.057Z,27.15
2019-01-23T00:38:20.213Z,25.00
2019-01-23T00:39:25.400Z,26.80
2019-01-23T00:40:30.215Z,27.20
2019-01-23T00:41:35.280Z,28.65
2019-01-23T00:42:40.084Z,27.75
2019-01-23T00:43:44.867Z,24.10
2019-01-23T00:44:49.772Z,23.95
2019-01-23T00:45:55.149Z,26.48
2019-01-23T00:47:00.273Z,27.67
2019-01-23T00:48:05.115Z,27.75
2019-01-23T00:49:10.614Z,28.15
2019-01-23T00:50:15.135Z,26.45
2019-01-23T00:51:19.953Z,27.45
2019-01-23T00:52:24.798Z,27.75
2019-01-23T00:53:29.990Z,25.15
2019-01-23T00:54:35.507Z,26.17
2019-01-23T00:55:40.969Z,27.30
2019-01-23T00:56:45.454Z,26.45
2019-01-23T00:57:50.846Z,24.52
2019-01-23T00:58:56.747Z,29.27
2019-01-23T01:00:02.299Z,26.17
2019-01-23T01:01:31.337Z,26.70
2019-01-23T01:02:36.487Z,22.22
2019-01-23T01:03:41.596Z,27.42
2019-01-23T01:04:46.488Z,26.52
2019-01-23T01:05:51.261Z,24.90
2019-01-23T01:06:56.114Z,28.15
2019-01-23T01:08:01.563Z,26.95
2019-01-23T01:09:10.038Z,23.50
2019-01-23T01:10:15.903Z,25.17
2019-01-23T01:11:20.997Z,27.32
2019-01-23T01:12:25.816Z,26.77
2019-01-23T01:13:30.924Z,27.48
2019-01-23T01:14:36.037Z,26.52
2019-01-23T01:15:41.203Z,25.92
2019-01-23T01:16:45.737Z,26.40
2019-01-23T01:17:51.289Z,26.33
2019-01-23T01:18:56.064Z,23.22
2019-01-23T01:20:01.133Z,26.95
2019-01-23T01:21:05.944Z,27.30
2019-01-23T01:22:11.088Z,26.20
2019-01-23T01:23:16.736Z,28.75
2019-01-23T01:24:21.532Z,25.57
2019-01-23T01:25:26.350Z,24.25
2019-01-23T01:26:31.801Z,27.00
2019-01-23T01:27:36.611Z,27.22
2019-01-23T01:28:41.584Z,29.75
2019-01-23T01:29:46.718Z,27.22
2019-01-23T01:30:51.891Z,28.92
2019-01-23T01:31:56.382Z,26.90
2019-01-23T01:33:01.136Z,27.62
2019-01-23T01:34:07.850Z,26.68
2019-01-23T01:35:13.615Z,28.30
2019-01-23T01:36:18.402Z,28.25
2019-01-23T01:37:23.177Z,25.50
2019-01-23T01:38:28.726Z,27.17
2019-01-23T01:39:34.648Z,26.45
2019-01-23T01:40:39.758Z,25.95
2019-01-23T01:41:44.904Z,27.20
2019-01-23T01:42:49.404Z,28.40
2019-01-23T01:43:54.196Z,28.20
2019-01-23T01:44:58.698Z,27.22
2019-01-23T01:46:03.470Z,28.50
2019-01-23T01:47:08.786Z,26.48
2019-01-23T01:48:14.396Z,25.15
2019-01-23T01:49:19.576Z,29.65
2019-01-23T01:50:24.755Z,26.65
2019-01-23T01:51:29.602Z,28.40
2019-01-23T01:52:34.393Z,28.77
2019-01-23T01:53:39.180Z,27.82
2019-01-23T01:54:45.590Z,27.22
2019-01-23T01:55:50.527Z,29.57
2019-01-23T01:56:56.025Z,29.50
2019-01-23T01:58:02.669Z,29.00
2019-01-23T01:59:07.815Z,29.27
2019-01-23T02:00:18.574Z,29.15
2019-01-23T02:01:23.534Z,28.87
2019-01-23T02:02:28.396Z,29.65
2019-01-23T02:03:33.187Z,27.93
2019-01-23T02:04:37.967Z,26.87
2019-01-23T02:05:42.733Z,28.17
2019-01-23T02:06:47.515Z,27.22
2019-01-23T02:07:52.315Z,28.40
2019-01-23T02:08:57.093Z,26.33
2019-01-23T02:10:02.282Z,27.42
2019-01-23T02:11:07.620Z,29.30
2019-01-23T02:12:12.415Z,28.02
2019-01-23T02:13:17.579Z,27.48
2019-01-23T02:14:22.698Z,24.98
2019-01-23T02:15:27.219Z,27.40
2019-01-23T02:16:31.983Z,22.60
2019-01-23T02:17:37.156Z,27.85
2019-01-23T02:18:42.267Z,26.30
2019-01-23T02:19:47.449Z,26.60
2019-01-23T02:20:52.317Z,27.32
2019-01-23T02:21:57.587Z,27.85
2019-01-23T02:23:02.083Z,27.70
2019-01-23T02:24:06.882Z,26.57
2019-01-23T02:25:12.093Z,25.48
2019-01-23T02:26:17.660Z,29.20
2019-01-23T02:27:22.559Z,27.73
2019-01-23T02:28:27.044Z,27.45
2019-01-23T02:29:32.687Z,26.75
2019-01-23T02:30:37.451Z,25.30
2019-01-23T02:31:43.174Z,28.12
2019-01-23T02:32:47.988Z,27.42
2019-01-23T02:33:52.481Z,26.35
2019-01-23T02:34:57.560Z,27.67
2019-01-23T02:36:03.173Z,26.27
2019-01-23T02:37:08.557Z,25.05
2019-01-23T02:38:13.331Z,26.85
2019-01-23T02:39:17.810Z,26.33
2019-01-23T02:40:23.642Z,24.87
2019-01-23T02:41:28.748Z,27.20
2019-01-23T02:42:33.555Z,25.27
2019-01-23T02:43:38.587Z,25.52
2019-01-23T02:44:43.480Z,26.93
2019-01-23T02:45:47.959Z,26.20
2019-01-23T02:46:53.479Z,25.23
2019-01-23T02:47:57.987Z,26.75
2019-01-23T02:49:03.089Z,23.90
2019-01-23T02:50:07.999Z,24.95
2019-01-23T02:51:12.749Z,24.67
2019-01-23T02:52:17.524Z,25.20
2019-01-23T02:53:23.049Z,24.30
2019-01-23T02:54:27.566Z,24.47
2019-01-23T02:55:32.423Z,25.30
2019-01-23T02:56:37.186Z,24.40
2019-01-23T02:57:41.694Z,24.87
2019-01-23T02:58:46.522Z,23.87
2019-01-23T02:59:51.626Z,25.70
2019-01-23T03:00:57.275Z,25.02
2019-01-23T03:02:02.412Z,24.60
2019-01-23T03:03:07.425Z,22.52
2019-01-23T03:04:11.941Z,24.70
2019-01-23T03:05:18.553Z,23.62
2019-01-23T03:06:23.035Z,25.08
2019-01-23T03:07:28.136Z,23.87
2019-01-23T03:08:32.906Z,24.25
2019-01-23T03:09:38.697Z,24.65
2019-01-23T03:10:43.806Z,23.95
2019-01-23T03:11:48.915Z,22.87
2019-01-23T03:12:54.161Z,22.62
2019-01-23T03:13:58.970Z,24.72
2019-01-23T03:15:03.757Z,22.25
2019-01-23T03:16:08.561Z,25.92
2019-01-23T03:17:13.346Z,22.67
2019-01-23T03:18:18.111Z,23.95
2019-01-23T03:19:23.352Z,22.75
2019-01-23T03:20:28.131Z,23.85
2019-01-23T03:21:33.337Z,23.45
2019-01-23T03:22:38.515Z,22.48
2019-01-23T03:23:43.660Z,25.15
2019-01-23T03:24:48.872Z,23.92
2019-01-23T03:25:53.711Z,23.67
2019-01-23T03:26:58.498Z,23.32
2019-01-23T03:28:03.731Z,24.00
2019-01-23T03:29:08.363Z,24.07
2019-01-23T03:30:21.549Z,21.97
2019-01-23T03:31:27.014Z,23.85
2019-01-23T03:32:32.141Z,21.55
2019-01-23T03:33:38.046Z,24.95
2019-01-23T03:34:42.815Z,21.80
2019-01-23T03:35:47.751Z,21.48
2019-01-23T03:36:52.550Z,19.27
2019-01-23T03:37:57.381Z,23.55
2019-01-23T03:39:02.587Z,22.85
2019-01-23T03:40:10.191Z,24.10
2019-01-23T03:41:15.303Z,22.70
2019-01-23T03:42:20.520Z,22.13
2019-01-23T03:43:25.596Z,24.00
2019-01-23T03:44:30.749Z,23.70
2019-01-23T03:45:35.814Z,22.50
2019-01-23T03:46:40.589Z,22.55
2019-01-23T03:47:45.367Z,24.52
2019-01-23T03:48:50.827Z,20.25
2019-01-23T03:49:55.594Z,24.35
2019-01-23T03:51:01.043Z,22.17
2019-01-23T03:52:05.828Z,23.07
2019-01-23T03:53:10.605Z,23.05
2019-01-23T03:54:15.402Z,22.10
2019-01-23T03:55:20.257Z,22.75
2019-01-23T03:56:25.839Z,22.73
2019-01-23T03:57:30.972Z,25.27
2019-01-23T03:58:35.779Z,23.18
2019-01-23T03:59:40.598Z,24.52
2019-01-23T04:00:45.414Z,23.62
2019-01-23T04:01:50.716Z,24.37
2019-01-23T04:02:55.224Z,22.22
2019-01-23T04:04:00.109Z,23.50
2019-01-23T04:05:05.020Z,21.90
2019-01-23T04:06:09.508Z,23.60
2019-01-23T04:07:14.292Z,24.12
2019-01-23T04:08:18.786Z,22.85
2019-01-23T04:09:23.290Z,23.40
2019-01-23T04:10:28.393Z,24.45
2019-01-23T04:11:33.597Z,24.07
2019-01-23T04:12:38.786Z,26.55
2019-01-23T04:13:43.863Z,23.15
2019-01-23T04:14:49.694Z,24.98
2019-01-23T04:15:54.479Z,25.32
2019-01-23T04:16:59.292Z,24.27
2019-01-23T04:18:04.418Z,24.50
2019-01-23T04:19:09.193Z,25.02
2019-01-23T04:20:21.864Z,23.67
2019-01-23T04:21:27.024Z,22.98
2019-01-23T04:22:31.864Z,24.07
2019-01-23T04:23:36.862Z,24.25
2019-01-23T04:24:42.379Z,24.57
2019-01-23T04:25:49.529Z,24.07
2019-01-23T04:26:55.013Z,24.50
2019-01-23T04:27:59.777Z,25.45
2019-01-23T04:29:04.673Z,24.50
2019-01-23T04:30:11.515Z,24.75
2019-01-23T04:31:16.659Z,24.45
2019-01-23T04:32:21.833Z,23.83
2019-01-23T04:33:27.022Z,23.62
2019-01-23T04:34:32.520Z,24.43
2019-01-23T04:35:37.638Z,22.82
2019-01-23T04:36:42.424Z,24.30
2019-01-23T04:37:46.944Z,23.70
2019-01-23T04:38:52.351Z,25.40
2019-01-23T04:39:57.444Z,22.98
2019-01-23T04:41:02.865Z,20.82
2019-01-23T04:42:08.512Z,24.05
2019-01-23T04:43:14.136Z,23.73
2019-01-23T04:44:19.621Z,23.62
2019-01-23T04:45:24.709Z,24.75
2019-01-23T04:46:29.899Z,23.60
2019-01-23T04:47:34.683Z,23.95
2019-01-23T04:48:40.152Z,23.27
2019-01-23T04:49:45.661Z,23.92
2019-01-23T04:51:27.902Z,22.80
2019-01-23T04:52:54.520Z,21.50
2019-01-23T04:53:59.720Z,23.73
2019-01-23T04:55:04.886Z,22.93
2019-01-23T04:56:09.990Z,22.75
2019-01-23T04:57:15.265Z,23.50
2019-01-23T04:58:20.405Z,24.77
2019-01-23T04:59:25.837Z,23.65
2019-01-23T05:00:31.280Z,22.52
2019-01-23T05:01:36.061Z,22.13
2019-01-23T05:02:40.867Z,23.85
2019-01-23T05:03:46.112Z,25.17
2019-01-23T05:04:51.530Z,23.83
2019-01-23T05:05:56.315Z,22.07
2019-01-23T05:07:01.461Z,23.02
2019-01-23T05:08:06.744Z,23.15
2019-01-23T05:09:12.327Z,23.05
2019-01-23T05:10:17.741Z,23.27
2019-01-23T05:11:22.924Z,21.80
2019-01-23T05:12:28.246Z,23.20
2019-01-23T05:13:33.328Z,24.65
2019-01-23T05:14:38.087Z,24.90
2019-01-23T05:15:42.851Z,24.67
2019-01-23T05:16:47.960Z,22.95
2019-01-23T05:17:53.122Z,23.92
2019-01-23T05:18:58.661Z,23.67
2019-01-23T05:20:03.808Z,23.55
2019-01-23T05:21:08.350Z,23.98
2019-01-23T05:22:12.840Z,23.55
2019-01-23T05:23:18.069Z,24.47
2019-01-23T05:24:23.238Z,23.25
2019-01-23T05:25:27.719Z,26.42
2019-01-23T05:26:32.472Z,23.15
2019-01-23T05:27:38.265Z,20.60
2019-01-23T05:28:44.144Z,23.47
2019-01-23T05:29:54.848Z,24.23
2019-01-23T05:30:55.541Z,23.18
2019-01-23T05:32:00.345Z,24.23
2019-01-23T05:33:05.607Z,24.30
2019-01-23T05:34:10.678Z,24.07
2019-01-23T05:35:15.495Z,23.65
2019-01-23T05:36:20.262Z,22.80
2019-01-23T05:37:25.030Z,23.92
2019-01-23T05:38:30.158Z,23.95
2019-01-23T05:39:35.324Z,22.82
2019-01-23T05:40:40.981Z,21.45
2019-01-23T05:41:46.529Z,22.62
2019-01-23T05:42:51.040Z,23.00
2019-01-23T05:43:56.574Z,23.02
2019-01-23T05:45:01.342Z,25.02
2019-01-23T05:46:06.835Z,23.62
2019-01-23T05:47:12.257Z,22.98
2019-01-23T05:48:17.006Z,23.15
2019-01-23T05:49:22.137Z,23.20
2019-01-23T05:50:26.941Z,25.12
2019-01-23T05:51:31.803Z,24.82
2019-01-23T05:52:36.594Z,24.20
2019-01-23T05:53:41.803Z,25.12
2019-01-23T05:54:47.154Z,22.67
2019-01-23T05:55:51.982Z,22.58
2019-01-23T05:56:57.472Z,25.35
2019-01-23T05:58:02.906Z,20.00
2019-01-23T05:59:07.883Z,23.90
2019-01-23T06:00:17.833Z,24.45
2019-01-23T06:01:23.032Z,22.45
2019-01-23T06:02:28.413Z,23.38
2019-01-23T06:03:33.312Z,24.55
2019-01-23T06:04:38.110Z,24.07
2019-01-23T06:05:42.887Z,23.70
2019-01-23T06:06:47.409Z,22.30
2019-01-23T06:07:52.209Z,23.95
2019-01-23T06:08:57.063Z,23.65
2019-01-23T06:10:02.277Z,25.57
2019-01-23T06:11:07.393Z,25.97
2019-01-23T06:12:12.542Z,24.30
2019-01-23T06:13:17.654Z,21.75
2019-01-23T06:14:22.860Z,25.35
2019-01-23T06:15:28.309Z,26.55
2019-01-23T06:16:33.483Z,24.52
2019-01-23T06:17:38.617Z,26.37
2019-01-23T06:18:43.155Z,25.82
2019-01-23T06:19:48.241Z,25.82
2019-01-23T06:20:53.034Z,26.55
2019-01-23T06:21:58.007Z,26.68
2019-01-23T06:23:03.135Z,26.55
2019-01-23T06:24:08.339Z,28.05
2019-01-23T06:25:13.588Z,26.75
2019-01-23T06:26:19.404Z,27.35
2019-01-23T06:27:24.204Z,26.93
2019-01-23T06:28:29.285Z,26.50
2019-01-23T06:29:34.888Z,26.97
2019-01-23T06:30:40.564Z,27.00
2019-01-23T06:31:45.234Z,27.40
2019-01-23T06:32:50.620Z,27.17
2019-01-23T06:33:55.589Z,27.60
2019-01-23T06:35:00.539Z,26.65
2019-01-23T06:36:05.638Z,26.50
2019-01-23T06:37:10.437Z,26.42
2019-01-23T06:38:15.998Z,26.33
2019-01-23T06:39:21.520Z,26.02
2019-01-23T06:40:26.695Z,27.55
2019-01-23T06:41:31.483Z,27.65
2019-01-23T06:42:36.624Z,27.07
2019-01-23T06:43:41.420Z,28.70
2019-01-23T06:44:46.221Z,26.20
2019-01-23T06:45:51.109Z,27.15
2019-01-23T06:46:56.702Z,27.42
2019-01-23T06:48:01.199Z,26.52
2019-01-23T06:49:06.742Z,27.32
2019-01-23T06:50:14.867Z,27.30
2019-01-23T06:51:19.618Z,26.97
2019-01-23T06:52:24.424Z,26.75
2019-01-23T06:53:30.643Z,28.42
2019-01-23T06:54:35.447Z,29.05
2019-01-23T06:55:40.508Z,26.75
2019-01-23T06:56:45.269Z,25.55
2019-01-23T06:57:49.755Z,26.45
2019-01-23T06:58:54.864Z,27.65
2019-01-23T07:00:00.178Z,28.83
2019-01-23T07:01:05.805Z,27.25
2019-01-23T07:02:10.963Z,27.87
2019-01-23T07:03:15.715Z,26.93
2019-01-23T07:04:20.613Z,26.90
2019-01-23T07:05:26.035Z,28.02
2019-01-23T07:06:31.527Z,24.98
2019-01-23T07:07:37.059Z,26.25
2019-01-23T07:08:41.801Z,26.90
2019-01-23T07:09:46.587Z,28.70
2019-01-23T07:10:51.689Z,26.95
2019-01-23T07:11:56.475Z,27.15
2019-01-23T07:13:01.241Z,25.92
2019-01-23T07:14:06.388Z,28.05
2019-01-23T07:15:11.291Z,26.62
2019-01-23T07:16:16.512Z,26.50
2019-01-23T07:17:21.002Z,27.32
2019-01-23T07:18:25.791Z,27.10
2019-01-23T07:19:30.275Z,27.95
2019-01-23T07:20:35.029Z,27.30
2019-01-23T07:21:39.834Z,28.40
2019-01-23T07:22:44.998Z,27.50
2019-01-23T07:23:50.174Z,25.30
2019-01-23T07:24:55.357Z,26.93
2019-01-23T07:26:00.156Z,25.75
2019-01-23T07:27:05.264Z,28.23
2019-01-23T07:28:11.268Z,26.82
2019-01-23T07:29:16.780Z,27.48
2019-01-23T07:30:27.144Z,26.87
2019-01-23T07:31:32.557Z,24.63
2019-01-23T07:32:38.501Z,25.05
2019-01-23T07:33:43.330Z,26.15
2019-01-23T07:34:48.472Z,26.50
2019-01-23T07:35:53.611Z,25.97
2019-01-23T07:36:58.546Z,24.82
2019-01-23T07:38:03.719Z,25.77
2019-01-23T07:39:10.715Z,28.02
2019-01-23T07:40:15.494Z,25.68
2019-01-23T07:41:20.300Z,25.88
2019-01-23T07:42:25.914Z,24.67
2019-01-23T07:43:31.085Z,26.02
2019-01-23T07:44:36.266Z,25.75
2019-01-23T07:45:41.450Z,25.17
2019-01-23T07:46:46.243Z,27.22
2019-01-23T07:47:51.041Z,26.55
2019-01-23T07:48:56.126Z,24.95
2019-01-23T07:50:00.601Z,26.27
2019-01-23T07:51:05.714Z,26.57
2019-01-23T07:52:10.909Z,24.27
2019-01-23T07:53:15.687Z,25.27
2019-01-23T07:54:21.379Z,24.72
2019-01-23T07:55:26.950Z,25.35
2019-01-23T07:56:32.017Z,25.20
2019-01-23T07:57:37.106Z,23.02
2019-01-23T07:58:42.265Z,23.85
2019-01-23T07:59:47.010Z,25.32
2019-01-23T08:00:51.860Z,25.12
2019-01-23T08:01:57.041Z,25.90
2019-01-23T08:03:01.838Z,26.05
2019-01-23T08:04:07.429Z,25.35
2019-01-23T08:05:12.636Z,26.70
2019-01-23T08:06:17.856Z,26.73
2019-01-23T08:07:22.636Z,27.73
2019-01-23T08:08:27.786Z,25.92
2019-01-23T08:09:32.555Z,25.62
2019-01-23T08:10:37.621Z,25.48
2019-01-23T08:11:43.046Z,25.70
2019-01-23T08:12:47.980Z,25.85
2019-01-23T08:13:53.128Z,26.25
2019-01-23T08:15:00.020Z,26.55
2019-01-23T08:16:04.866Z,25.05
2019-01-23T08:17:09.637Z,23.40
2019-01-23T08:18:14.417Z,24.60
2019-01-23T08:19:19.277Z,25.30
2019-01-23T08:20:24.488Z,25.10
2019-01-23T08:21:29.256Z,24.65
2019-01-23T08:22:34.446Z,25.48
2019-01-23T08:23:39.245Z,24.90
2019-01-23T08:24:44.428Z,25.30
2019-01-23T08:25:49.584Z,25.72
2019-01-23T08:26:54.370Z,24.87
2019-01-23T08:27:59.139Z,25.68
2019-01-23T08:29:04.240Z,24.63
2019-01-23T08:30:09.110Z,25.05
2019-01-23T08:31:13.856Z,25.45
2019-01-23T08:32:18.639Z,25.40
2019-01-23T08:33:23.878Z,23.50
2019-01-23T08:34:29.140Z,25.55
2019-01-23T08:35:33.939Z,25.37
2019-01-23T08:36:38.720Z,24.98
2019-01-23T08:37:43.494Z,25.10
2019-01-23T08:38:49.195Z,26.12
2019-01-23T08:39:53.957Z,25.95
2019-01-23T08:40:58.725Z,24.92
2019-01-23T08:42:03.522Z,26.87
2019-01-23T08:43:08.510Z,23.85
2019-01-23T08:44:13.614Z,25.05
2019-01-23T08:45:18.833Z,25.45
2019-01-23T08:46:23.605Z,23.15
2019-01-23T08:47:28.884Z,25.32
2019-01-23T08:48:34.018Z,25.32
2019-01-23T08:49:38.836Z,23.75
2019-01-23T08:50:45.120Z,25.52
2019-01-23T08:51:50.589Z,26.07
2019-01-23T08:52:55.627Z,23.52
2019-01-23T08:54:00.457Z,24.37
2019-01-23T08:55:08.361Z,24.30
2019-01-23T08:56:13.135Z,25.48
2019-01-23T08:57:17.916Z,25.05
2019-01-23T08:58:22.654Z,24.07
2019-01-23T08:59:27.417Z,23.75
2019-01-23T09:00:32.541Z,23.65
2019-01-23T09:01:37.371Z,24.72
2019-01-23T09:02:42.175Z,25.43
2019-01-23T09:03:47.621Z,25.72
2019-01-23T09:04:53.160Z,24.98
2019-01-23T09:05:58.350Z,24.25
2019-01-23T09:07:03.123Z,24.00
2019-01-23T09:08:08.267Z,25.32
2019-01-23T09:09:13.436Z,23.65
2019-01-23T09:10:20.154Z,24.60
2019-01-23T09:11:25.064Z,23.45
2019-01-23T09:12:29.838Z,24.05
2019-01-23T09:13:34.644Z,23.12
2019-01-23T09:14:39.711Z,23.25
2019-01-23T09:15:45.141Z,24.10
2019-01-23T09:16:49.927Z,25.70
2019-01-23T09:17:54.996Z,25.20
2019-01-23T09:19:00.074Z,24.85
2019-01-23T09:20:05.960Z,24.20
2019-01-23T09:21:10.731Z,24.92
2019-01-23T09:22:16.343Z,24.02
2019-01-23T09:23:21.151Z,25.27
2019-01-23T09:24:26.795Z,24.12
2019-01-23T09:25:32.272Z,23.50
2019-01-23T09:26:37.069Z,23.67
2019-01-23T09:27:42.266Z,24.45
2019-01-23T09:28:47.448Z,24.18
2019-01-23T09:29:52.528Z,23.10
2019-01-23T09:31:29.758Z,24.37
2019-01-23T09:32:57.954Z,23.15
2019-01-23T09:34:30.167Z,21.65
2019-01-23T09:36:18.874Z,22.37
2019-01-23T09:37:53.559Z,21.82
2019-01-23T09:39:13.425Z,23.32
2019-01-23T09:40:36.589Z,22.22
2019-01-23T09:41:55.768Z,24.02
2019-01-23T09:43:33.181Z,23.62
2019-01-23T09:45:11.550Z,22.20
2019-01-23T09:46:51.944Z,22.15
2019-01-23T09:48:21.369Z,22.98
2019-01-23T09:49:52.522Z,23.12
2019-01-23T09:51:52.480Z,23.25
2019-01-23T09:53:26.780Z,21.40
2019-01-23T09:54:31.610Z,23.65
2019-01-23T09:55:40.284Z,24.07
2019-01-23T09:56:48.236Z,22.13
2019-01-23T09:57:58.733Z,23.27
2019-01-23T09:59:03.266Z,23.07
2019-01-23T10:00:11.431Z,23.38
2019-01-23T10:01:16.345Z,23.32
2019-01-23T10:02:41.498Z,24.45
2019-01-23T10:03:57.283Z,24.30
2019-01-23T10:37:38.988Z,20.82
2019-01-23T10:39:11.624Z,21.17
2019-01-23T10:40:49.445Z,21.75
2019-01-23T10:41:51.750Z,21.00
2019-01-23T10:43:02.508Z,19.37
2019-01-23T10:44:09.977Z,22.35
2019-01-23T10:45:20.415Z,20.97
2019-01-23T10:46:25.470Z,22.22
2019-01-23T10:47:31.191Z,22.40
2019-01-23T10:48:38.016Z,21.75
2019-01-23T10:49:42.361Z,20.72
2019-01-23T10:50:47.166Z,20.57
2019-01-23T10:51:52.380Z,20.85
2019-01-23T10:52:58.428Z,21.90
2019-01-23T10:54:03.190Z,22.98
2019-01-23T10:55:08.535Z,21.93
2019-01-23T10:56:13.306Z,23.80
2019-01-23T10:57:18.122Z,23.27
2019-01-23T10:58:32.785Z,23.52
2019-01-23T10:59:41.275Z,21.75
2019-01-23T11:00:46.343Z,21.27
2019-01-23T11:01:58.513Z,22.32
2019-01-23T11:03:12.173Z,21.65
2019-01-23T11:04:24.788Z,21.97
2019-01-23T11:05:31.189Z,21.68
2019-01-23T11:08:10.292Z,19.90
2019-01-23T11:09:52.155Z,19.02
2019-01-23T11:10:57.976Z,21.33
2019-01-23T11:13:57.860Z,20.75
2019-01-23T11:16:39.655Z,21.07
2019-01-23T11:17:54.071Z,21.93
2019-01-23T11:19:05.033Z,21.27
2019-01-23T11:20:24.800Z,20.70
2019-01-23T11:21:38.309Z,22.75
2019-01-23T11:23:22.591Z,22.62
2019-01-23T11:24:35.325Z,22.90
2019-01-23T11:25:43.101Z,23.75
2019-01-23T11:26:49.832Z,21.85
2019-01-23T11:28:04.574Z,23.47
2019-01-23T11:29:22.340Z,23.35
2019-01-23T11:30:34.286Z,24.12
2019-01-23T11:31:56.916Z,23.25
2019-01-23T11:33:20.570Z,23.65
2019-01-23T11:34:59.045Z,22.50
2019-01-23T11:38:21.258Z,22.10
2019-01-23T11:40:02.359Z,21.33
2019-01-23T11:41:17.477Z,21.35
2019-01-23T11:42:42.408Z,23.60
2019-01-23T11:43:47.725Z,23.38
2019-01-23T11:44:53.529Z,22.40
2019-01-23T11:45:58.618Z,23.00
2019-01-23T11:47:03.652Z,22.45
2019-01-23T11:48:08.668Z,22.20
2019-01-23T11:49:18.999Z,23.22
2019-01-23T11:50:24.259Z,22.35
2019-01-23T11:54:21.063Z,22.65
2019-01-23T11:56:02.211Z,22.10
2019-01-23T11:57:07.188Z,21.40
2019-01-23T12:05:17.572Z,22.02
2019-01-23T12:08:18.325Z,20.52
2019-01-23T12:08:57.277Z,22.17
2019-01-23T12:11:13.276Z,20.52
2019-01-23T12:22:19.629Z,19.73
2019-01-23T12:24:52.269Z,22.37
2019-01-23T12:26:00.549Z,20.72
2019-01-23T12:27:30.768Z,20.95
2019-01-23T12:28:56.050Z,21.10
2019-01-23T12:34:49.094Z,22.37
2019-01-23T12:35:53.878Z,21.05
2019-01-23T12:37:11.878Z,21.55
2019-01-23T12:38:32.702Z,22.82
2019-01-23T12:39:40.750Z,21.85
2019-01-23T12:40:55.527Z,22.70
2019-01-23T12:42:01.090Z,22.00
2019-01-23T12:43:09.240Z,21.10
2019-01-23T12:44:14.262Z,22.37
2019-01-23T12:45:30.816Z,22.42
2019-01-23T12:57:26.767Z,21.80
2019-01-23T12:58:31.617Z,22.02
2019-01-23T12:59:36.489Z,20.88
2019-01-23T13:00:57.252Z,23.00
2019-01-23T13:02:20.204Z,22.40
2019-01-23T13:03:25.422Z,22.30
2019-01-23T13:04:53.546Z,22.48
2019-01-23T13:05:58.458Z,22.25
2019-01-23T13:07:03.692Z,22.95
2019-01-23T13:08:10.238Z,21.23
2019-01-23T13:09:17.118Z,23.35
2019-01-23T13:10:25.540Z,23.05
2019-01-23T13:17:08.147Z,21.70
2019-01-23T13:18:08.832Z,22.90
2019-01-23T13:19:13.514Z,21.73
2019-01-23T13:20:18.845Z,21.65
2019-01-23T13:21:23.668Z,22.52
2019-01-23T13:22:28.747Z,23.47
2019-01-23T13:23:33.950Z,22.05
2019-01-23T13:24:38.720Z,22.07
2019-01-23T13:25:43.191Z,22.52
2019-01-23T13:26:47.947Z,23.15
2019-01-23T13:27:52.534Z,21.95
2019-01-23T13:28:57.786Z,23.22
2019-01-23T13:30:02.265Z,22.05
2019-01-23T13:31:07.552Z,22.80
2019-01-23T13:32:12.730Z,24.55
2019-01-23T13:33:17.974Z,22.45
2019-01-23T13:34:22.781Z,24.15
2019-01-23T13:35:46.609Z,22.50
2019-01-23T13:36:51.394Z,23.57
2019-01-23T13:37:56.352Z,21.95
2019-01-23T13:39:01.306Z,23.22
2019-01-23T13:40:09.614Z,22.98
2019-01-23T13:41:14.107Z,21.95
2019-01-23T13:42:19.597Z,23.20
2019-01-23T13:43:24.414Z,22.90
2019-01-23T13:44:29.300Z,22.85
2019-01-23T13:45:34.074Z,21.48
2019-01-23T13:46:39.557Z,22.22
2019-01-23T13:47:44.662Z,23.18
2019-01-23T13:48:49.474Z,22.45
2019-01-23T13:49:54.240Z,22.22
2019-01-23T13:51:00.471Z,22.75
2019-01-23T13:52:05.460Z,23.55
2019-01-23T13:53:10.676Z,21.45
2019-01-23T13:54:15.843Z,22.67
2019-01-23T13:55:21.212Z,23.22
2019-01-23T13:56:25.741Z,24.55
2019-01-23T13:57:30.617Z,23.32
2019-01-23T13:58:41.764Z,24.65
2019-01-23T13:59:42.169Z,23.90
2019-01-23T14:00:47.434Z,22.75
2019-01-23T14:01:56.244Z,22.73
2019-01-23T14:02:59.190Z,23.65
2019-01-23T14:04:03.947Z,23.02
2019-01-23T14:05:09.654Z,22.80
2019-01-23T14:06:14.573Z,23.15
2019-01-23T14:07:20.031Z,23.65
2019-01-23T14:08:24.829Z,22.30
2019-01-23T14:09:29.316Z,21.45
2019-01-23T14:10:33.859Z,22.20
2019-01-23T14:11:38.640Z,22.17
2019-01-23T14:12:43.237Z,21.23
2019-01-23T14:13:48.159Z,23.02
2019-01-23T14:14:53.033Z,21.45
2019-01-23T14:15:58.486Z,22.98
2019-01-23T14:17:03.282Z,21.95
2019-01-23T14:18:08.516Z,23.57
2019-01-23T14:19:13.395Z,22.80
2019-01-23T14:20:18.174Z,22.67
2019-01-23T14:21:22.991Z,22.98
2019-01-23T14:22:28.645Z,24.35
2019-01-23T14:23:34.168Z,22.95
2019-01-23T14:24:39.674Z,24.15
2019-01-23T14:25:44.660Z,23.05
2019-01-23T14:26:49.450Z,23.73
2019-01-23T14:27:55.018Z,23.77
2019-01-23T14:28:59.789Z,24.85
2019-01-23T14:30:04.745Z,23.67
2019-01-23T14:31:09.554Z,24.27
2019-01-23T14:32:14.367Z,23.57
2019-01-23T14:33:20.350Z,24.32
2019-01-23T14:34:25.115Z,22.82
2019-01-23T14:35:30.628Z,23.73
2019-01-23T14:36:35.229Z,24.30
2019-01-23T14:37:40.344Z,23.57
2019-01-23T14:38:45.278Z,23.47
2019-01-23T14:39:50.211Z,22.98
2019-01-23T14:40:55.855Z,23.50
2019-01-23T14:42:02.090Z,24.02
2019-01-23T14:43:24.180Z,23.30
2019-01-23T14:44:28.713Z,23.18
2019-01-23T14:45:35.416Z,23.62
2019-01-23T14:46:41.161Z,22.48
2019-01-23T14:47:48.913Z,24.32
2019-01-23T14:48:54.456Z,24.85
2019-01-23T14:50:05.118Z,23.20
2019-01-23T14:51:10.342Z,24.40
2019-01-23T14:52:15.773Z,22.77
2019-01-23T14:53:22.153Z,23.85
2019-01-23T14:54:27.442Z,24.40
2019-01-23T14:55:32.199Z,23.65
2019-01-23T14:56:37.154Z,23.35
2019-01-23T14:57:42.650Z,23.12
2019-01-23T14:58:47.482Z,24.25
2019-01-23T14:59:53.414Z,24.18
2019-01-23T15:00:59.100Z,23.30
2019-01-23T15:02:10.161Z,23.75
2019-01-23T15:03:12.031Z,24.77
2019-01-23T15:04:17.739Z,23.27
2019-01-23T15:05:22.631Z,24.18
2019-01-23T15:06:28.092Z,24.45
2019-01-23T15:07:35.381Z,24.60
2019-01-23T15:08:43.296Z,23.55
2019-01-23T15:09:51.194Z,23.83
2019-01-23T15:10:56.420Z,23.47
2019-01-23T15:12:02.591Z,23.65
2019-01-23T15:13:07.997Z,24.52
2019-01-23T15:14:15.131Z,23.95
2019-01-23T15:15:19.921Z,22.93
2019-01-23T15:16:24.724Z,23.00
2019-01-23T15:17:29.844Z,24.47
2019-01-23T15:18:34.501Z,24.47
2019-01-23T15:19:39.502Z,24.18
2019-01-23T15:20:43.987Z,24.20
2019-01-23T15:21:49.933Z,22.73
2019-01-23T15:22:55.198Z,24.02
2019-01-23T15:23:59.735Z,25.35
2019-01-23T15:25:04.596Z,23.38
2019-01-23T15:26:09.685Z,23.32
2019-01-23T15:27:14.909Z,23.83
2019-01-23T15:28:19.814Z,25.45
2019-01-23T15:29:24.964Z,23.55
2019-01-23T15:30:29.451Z,23.18
2019-01-23T15:31:33.931Z,25.05
2019-01-23T15:32:38.538Z,23.98
2019-01-23T15:33:43.374Z,23.10
2019-01-23T15:34:48.186Z,23.10
2019-01-23T15:35:53.336Z,23.73
2019-01-23T15:36:58.552Z,23.18
2019-01-23T15:38:03.449Z,23.85
2019-01-23T15:39:09.497Z,24.45
2019-01-23T15:40:17.589Z,23.70
2019-01-23T15:41:22.142Z,25.82
2019-01-23T15:42:27.291Z,24.10
2019-01-23T15:43:32.490Z,24.85
2019-01-23T15:44:37.620Z,24.70